createdAt,value
2022-10-09T00:00:46.411Z,10.30
2022-10-09T00:03:15.258Z,10.30
2022-10-09T00:05:42.025Z,10.20
2022-10-09T00:08:08.934Z,10.20
2022-10-09T00:10:41.177Z,10.10
2022-10-09T00:13:08.007Z,10.10
2022-10-09T00:15:42.208Z,10.00
2022-10-09T00:18:10.704Z,10.10
2022-10-09T00:20:43.345Z,10.00
2022-10-09T00:23:11.978Z,10.00
2022-10-09T00:25:39.311Z,10.00
2022-10-09T00:28:06.143Z,9.90
2022-10-09T00:30:33.020Z,9.90
2022-10-09T00:32:59.690Z,9.90
2022-10-09T00:35:26.390Z,9.90
2022-10-09T00:37:53.123Z,9.80
2022-10-09T00:40:20.178Z,9.80
2022-10-09T00:42:48.939Z,9.70
2022-10-09T00:45:20.767Z,9.70
2022-10-09T00:47:51.801Z,9.60
2022-10-09T00:50:26.938Z,9.60
2022-10-09T00:52:57.239Z,9.60
2022-10-09T00:55:24.905Z,9.50
2022-10-09T00:57:53.923Z,9.40
2022-10-09T01:00:21.383Z,9.30
2022-10-09T01:02:48.441Z,9.30
2022-10-09T01:05:16.080Z,9.30
2022-10-09T01:07:42.766Z,9.20
2022-10-09T01:10:17.295Z,9.10
2022-10-09T01:13:04.866Z,9.00
2022-10-09T01:15:42.942Z,8.90
2022-10-09T01:18:19.428Z,9.00
2022-10-09T01:21:08.519Z,8.90
2022-10-09T01:24:07.621Z,8.90
2022-10-09T01:27:28.818Z,8.90
2022-10-09T01:30:00.110Z,8.80
2022-10-09T01:32:40.510Z,8.90
2022-10-09T01:35:10.635Z,8.90
2022-10-09T01:37:40.447Z,8.80
2022-10-09T01:40:09.138Z,8.80
2022-10-09T01:42:35.917Z,8.70
2022-10-09T01:45:02.617Z,8.70
2022-10-09T01:47:29.453Z,8.60
2022-10-09T01:50:17.402Z,8.60
2022-10-09T01:52:57.582Z,8.60
2022-10-09T01:55:24.230Z,8.50
2022-10-09T01:58:20.448Z,8.50
2022-10-09T02:00:58.805Z,8.50
2022-10-09T02:03:27.254Z,8.50
2022-10-09T02:05:56.298Z,8.50
2022-10-09T02:08:25.259Z,8.50
2022-10-09T02:10:56.460Z,8.50
2022-10-09T02:13:23.825Z,8.50
2022-10-09T02:16:11.529Z,8.50
2022-10-09T02:18:45.896Z,8.50
2022-10-09T02:21:22.868Z,8.50
2022-10-09T02:23:51.207Z,8.40
2022-10-09T02:26:18.915Z,8.40
2022-10-09T02:28:46.273Z,8.40
2022-10-09T02:31:29.525Z,8.40
2022-10-09T02:34:04.926Z,8.40
2022-10-09T02:36:32.469Z,8.30
2022-10-09T02:38:59.611Z,8.30
2022-10-09T02:41:26.541Z,8.40
2022-10-09T02:43:53.543Z,8.30
2022-10-09T02:46:20.395Z,8.20
2022-10-09T02:48:47.119Z,8.20
2022-10-09T02:51:14.288Z,8.10
2022-10-09T02:53:41.256Z,8.10
2022-10-09T02:56:08.016Z,8.10
2022-10-09T02:58:35.650Z,8.10
2022-10-09T03:01:03.151Z,8.10
2022-10-09T03:03:29.929Z,8.00
2022-10-09T03:06:09.331Z,8.00
2022-10-09T03:08:41.071Z,8.00
2022-10-09T03:11:07.964Z,8.10
2022-10-09T03:13:34.831Z,8.00
2022-10-09T03:16:09.472Z,8.10
2022-10-09T03:18:36.759Z,8.00
2022-10-09T03:21:07.933Z,8.00
2022-10-09T03:23:34.863Z,8.00
2022-10-09T03:26:10.392Z,8.00
2022-10-09T03:28:40.118Z,8.00
2022-10-09T03:31:07.391Z,8.00
2022-10-09T03:33:35.489Z,8.00
2022-10-09T03:36:03.677Z,7.90
2022-10-09T03:38:30.463Z,7.90
2022-10-09T03:41:01.204Z,7.90
2022-10-09T03:43:28.880Z,7.90
2022-10-09T03:45:58.260Z,7.90
2022-10-09T03:48:27.658Z,7.90
2022-10-09T03:50:54.327Z,7.90
2022-10-09T03:53:20.970Z,7.90
2022-10-09T03:55:47.662Z,7.80
2022-10-09T03:58:14.328Z,7.80
2022-10-09T04:00:41.241Z,7.80
2022-10-09T04:03:07.977Z,7.80
2022-10-09T04:05:35.795Z,7.80
2022-10-09T04:08:02.652Z,7.80
2022-10-09T04:10:29.442Z,7.70
2022-10-09T04:12:56.138Z,7.70
2022-10-09T04:15:22.890Z,7.70
2022-10-09T04:17:49.807Z,7.80
2022-10-09T04:20:16.723Z,7.70
2022-10-09T04:22:43.402Z,7.70
2022-10-09T04:25:11.499Z,7.70
2022-10-09T04:27:38.297Z,7.70
2022-10-09T04:30:05.868Z,7.60
2022-10-09T04:32:32.570Z,7.60
2022-10-09T04:34:59.262Z,7.60
2022-10-09T04:37:26.010Z,7.60
2022-10-09T04:39:52.725Z,7.60
2022-10-09T04:42:19.377Z,7.50
2022-10-09T04:44:46.062Z,7.50
2022-10-09T04:47:12.761Z,7.50
2022-10-09T04:49:39.803Z,7.50
2022-10-09T04:52:06.566Z,7.50
2022-10-09T04:54:33.374Z,7.50
2022-10-09T04:57:00.002Z,7.50
2022-10-09T04:59:26.773Z,7.40
2022-10-09T05:01:53.576Z,7.50
2022-10-09T05:04:20.279Z,7.40
2022-10-09T05:06:47.194Z,7.40
2022-10-09T05:09:13.881Z,7.40
2022-10-09T05:11:42.792Z,7.40
2022-10-09T05:14:10.548Z,7.40
2022-10-09T05:17:00.995Z,7.30
2022-10-09T05:19:24.291Z,7.40
2022-10-09T05:21:50.966Z,7.30
2022-10-09T05:24:17.618Z,7.30
2022-10-09T05:26:44.350Z,7.30
2022-10-09T05:29:11.064Z,7.30
2022-10-09T05:31:37.996Z,7.30
2022-10-09T05:34:05.124Z,7.30
2022-10-09T05:36:31.854Z,7.30
2022-10-09T05:39:00.619Z,7.30
2022-10-09T05:41:29.545Z,7.30
2022-10-09T05:44:01.203Z,7.30
2022-10-09T05:46:29.722Z,7.40
2022-10-09T05:48:59.081Z,7.40
2022-10-09T05:51:31.168Z,7.40
2022-10-09T05:53:58.618Z,7.40
2022-10-09T05:56:31.254Z,7.40
2022-10-09T05:59:00.490Z,7.30
2022-10-09T06:01:54.794Z,7.40
2022-10-09T06:04:24.079Z,7.30
2022-10-09T06:06:51.456Z,7.40
2022-10-09T06:09:25.313Z,7.40
2022-10-09T06:11:53.884Z,7.40
2022-10-09T06:14:24.340Z,7.40
2022-10-09T06:16:51.403Z,7.40
2022-10-09T06:19:19.250Z,7.40
2022-10-09T06:21:47.207Z,7.40
2022-10-09T06:24:28.188Z,7.50
2022-10-09T06:26:56.158Z,7.40
2022-10-09T06:29:22.984Z,7.40
2022-10-09T06:31:49.720Z,7.50
2022-10-09T06:34:16.361Z,7.50
2022-10-09T06:36:43.033Z,7.50
2022-10-09T06:39:10.465Z,7.60
2022-10-09T06:41:37.232Z,7.60
2022-10-09T06:44:06.317Z,7.60
2022-10-09T06:46:35.696Z,7.60
2022-10-09T06:49:03.052Z,7.70
2022-10-09T06:51:30.923Z,7.70
2022-10-09T06:54:00.876Z,7.70
2022-10-09T06:56:30.010Z,7.80
2022-10-09T06:58:59.841Z,7.90
2022-10-09T07:01:30.288Z,7.90
2022-10-09T07:03:59.361Z,7.90
2022-10-09T07:06:31.161Z,8.00
2022-10-09T07:09:04.037Z,8.00
2022-10-09T07:11:36.415Z,8.10
2022-10-09T07:14:05.339Z,8.20
2022-10-09T07:16:34.725Z,8.20
2022-10-09T07:19:03.806Z,8.30
2022-10-09T07:21:30.789Z,8.40
2022-10-09T07:24:00.841Z,8.40
2022-10-09T07:26:29.297Z,8.50
2022-10-09T07:28:57.131Z,8.50
2022-10-09T07:31:24.103Z,8.60
2022-10-09T07:33:53.173Z,8.60
2022-10-09T07:36:20.420Z,8.70
2022-10-09T07:38:52.317Z,8.70
2022-10-09T07:41:20.162Z,8.80
2022-10-09T07:43:46.890Z,8.80
2022-10-09T07:46:16.865Z,8.80
2022-10-09T07:48:43.598Z,8.90
2022-10-09T07:51:19.240Z,9.00
2022-10-09T07:53:46.340Z,9.10
2022-10-09T07:56:17.874Z,9.10
2022-10-09T07:58:52.467Z,9.30
2022-10-09T08:01:20.736Z,9.30
2022-10-09T08:03:48.261Z,9.40
2022-10-09T08:06:15.298Z,9.50
2022-10-09T08:08:42.467Z,9.70
2022-10-09T08:11:14.875Z,9.80
2022-10-09T08:13:42.579Z,9.80
2022-10-09T08:16:09.875Z,9.90
2022-10-09T08:18:36.840Z,10.00
2022-10-09T08:21:07.963Z,10.10
2022-10-09T08:23:35.266Z,10.30
2022-10-09T08:26:02.045Z,10.40
2022-10-09T08:28:28.768Z,10.60
2022-10-09T08:30:55.650Z,10.70
2022-10-09T08:33:23.453Z,10.90
2022-10-09T08:35:50.762Z,11.00
2022-10-09T08:38:44.944Z,11.20
2022-10-09T08:41:37.931Z,11.30
2022-10-09T08:44:11.261Z,11.50
2022-10-09T08:46:56.182Z,11.60
2022-10-09T08:49:29.354Z,11.70
2022-10-09T08:52:00.368Z,11.80
2022-10-09T08:54:39.227Z,11.90
2022-10-09T08:57:12.297Z,12.10
2022-10-09T08:59:39.049Z,12.30
2022-10-09T09:02:05.815Z,12.60
2022-10-09T09:04:54.586Z,12.70
2022-10-09T09:07:45.902Z,12.70
2022-10-09T09:10:30.190Z,12.80
2022-10-09T09:13:09.244Z,12.80
2022-10-09T09:15:55.755Z,12.90
2022-10-09T09:18:31.086Z,13.00
2022-10-09T09:21:07.281Z,13.10
2022-10-09T09:23:40.690Z,13.10
2022-10-09T09:26:16.068Z,13.20
2022-10-09T09:28:44.171Z,13.30
2022-10-09T09:31:31.320Z,13.40
2022-10-09T09:34:11.192Z,13.40
2022-10-09T09:36:54.913Z,13.60
2022-10-09T09:40:08.257Z,13.80
2022-10-09T09:42:13.891Z,13.80
2022-10-09T09:44:55.080Z,14.00
2022-10-09T09:47:33.578Z,14.00
2022-10-09T09:50:02.059Z,14.10
2022-10-09T09:52:34.247Z,14.30
2022-10-09T09:55:01.143Z,14.40
2022-10-09T09:57:37.987Z,14.50
2022-10-09T10:00:23.711Z,14.60
2022-10-09T10:03:01.305Z,14.80
2022-10-09T10:05:28.115Z,14.90
2022-10-09T10:07:57.514Z,15.10
2022-10-09T10:10:29.396Z,15.00
2022-10-09T10:12:58.692Z,15.20
2022-10-09T10:15:35.333Z,15.30
2022-10-09T10:18:08.026Z,15.40
2022-10-09T10:20:54.501Z,15.40
2022-10-09T10:23:25.333Z,15.40
2022-10-09T10:25:55.390Z,15.60
2022-10-09T10:28:28.460Z,15.60
2022-10-09T10:30:57.283Z,15.60
2022-10-09T10:33:31.855Z,15.70
2022-10-09T10:35:59.785Z,15.80
2022-10-09T10:38:55.307Z,15.90
2022-10-09T10:41:27.812Z,16.00
2022-10-09T10:44:17.578Z,16.10
2022-10-09T10:47:04.171Z,16.20
2022-10-09T10:49:33.801Z,16.20
2022-10-09T10:52:12.411Z,16.10
2022-10-09T10:54:51.610Z,16.20
2022-10-09T10:57:26.269Z,16.20
2022-10-09T11:00:11.994Z,16.20
2022-10-09T11:03:00.582Z,16.30
2022-10-09T11:06:12.548Z,16.50
2022-10-09T11:08:51.198Z,16.60
2022-10-09T11:11:33.535Z,16.70
2022-10-09T11:14:22.175Z,16.80
2022-10-09T11:17:06.730Z,16.90
2022-10-09T11:19:59.402Z,17.00
2022-10-09T11:22:58.731Z,17.00
2022-10-09T11:25:36.261Z,17.10
2022-10-09T11:28:03.139Z,17.20
2022-10-09T11:30:40.119Z,17.20
2022-10-09T11:33:25.589Z,17.30
2022-10-09T11:36:02.155Z,17.40
2022-10-09T11:38:43.077Z,17.40
2022-10-09T11:41:10.905Z,17.30
2022-10-09T11:43:43.061Z,17.30
2022-10-09T11:46:34.835Z,17.50
2022-10-09T11:49:25.358Z,17.70
2022-10-09T11:52:29.014Z,17.80
2022-10-09T11:54:56.157Z,18.00
2022-10-09T11:57:30.156Z,18.20
2022-10-09T12:00:15.665Z,18.20
2022-10-09T12:02:44.261Z,18.30
2022-10-09T12:05:27.847Z,18.40
2022-10-09T12:07:54.679Z,18.60
2022-10-09T12:10:33.954Z,18.60
2022-10-09T12:13:06.398Z,18.60
2022-10-09T12:15:53.354Z,18.80
2022-10-09T12:18:44.848Z,19.00
2022-10-09T12:21:43.130Z,18.90
2022-10-09T12:24:16.936Z,18.90
2022-10-09T12:26:44.090Z,19.00
2022-10-09T12:29:50.699Z,19.00
2022-10-09T12:32:29.049Z,19.10
2022-10-09T12:34:56.470Z,19.40
2022-10-09T12:37:33.779Z,19.40
2022-10-09T12:40:18.370Z,19.50
2022-10-09T12:42:45.558Z,19.70
2022-10-09T12:45:31.733Z,19.90
2022-10-09T12:48:08.070Z,19.90
2022-10-09T12:50:35.707Z,19.80
2022-10-09T12:53:13.450Z,20.00
2022-10-09T12:55:49.441Z,20.30
2022-10-09T12:58:36.740Z,20.30
2022-10-09T13:01:07.238Z,20.40
2022-10-09T13:03:41.019Z,20.50
2022-10-09T13:06:19.434Z,20.60
2022-10-09T13:08:54.082Z,20.70
2022-10-09T13:11:34.976Z,20.70
2022-10-09T13:14:02.030Z,20.90
2022-10-09T13:16:44.281Z,21.00
2022-10-09T13:19:27.115Z,21.40
2022-10-09T13:22:26.652Z,21.70
2022-10-09T13:24:56.499Z,22.10
2022-10-09T13:27:32.286Z,22.60
2022-10-09T13:30:00.553Z,22.60
2022-10-09T13:32:27.973Z,23.00
2022-10-09T13:34:55.294Z,23.20
2022-10-09T13:37:23.526Z,23.10
2022-10-09T13:39:58.251Z,23.10
2022-10-09T13:42:32.414Z,23.20
2022-10-09T13:44:59.355Z,23.50
2022-10-09T13:47:26.064Z,23.80
2022-10-09T13:49:52.817Z,23.90
2022-10-09T13:52:19.492Z,24.30
2022-10-09T13:54:46.198Z,24.30
2022-10-09T13:57:13.228Z,24.20
2022-10-09T13:59:40.015Z,24.40
2022-10-09T14:02:07.230Z,24.70
2022-10-09T14:04:34.028Z,24.80
2022-10-09T14:07:00.977Z,24.60
2022-10-09T14:09:27.718Z,24.60
2022-10-09T14:11:54.421Z,24.80
2022-10-09T14:14:22.668Z,24.50
2022-10-09T14:16:50.720Z,23.80
2022-10-09T14:19:17.960Z,22.60
2022-10-09T14:21:47.782Z,21.90
2022-10-09T14:24:15.562Z,21.20
2022-10-09T14:26:44.805Z,20.70
2022-10-09T14:29:14.165Z,20.40
2022-10-09T14:31:40.918Z,20.10
2022-10-09T14:34:07.722Z,19.70
2022-10-09T14:36:34.431Z,19.50
2022-10-09T14:39:01.248Z,19.40
2022-10-09T14:41:30.075Z,19.20
2022-10-09T14:44:00.035Z,19.10
2022-10-09T14:46:28.187Z,19.00
2022-10-09T14:48:56.681Z,18.90
2022-10-09T14:51:26.132Z,18.90
2022-10-09T14:53:59.403Z,18.80
2022-10-09T14:56:26.852Z,18.80
2022-10-09T14:58:53.851Z,18.60
2022-10-09T15:01:22.417Z,18.50
2022-10-09T15:03:49.578Z,18.30
2022-10-09T15:06:20.043Z,18.20
2022-10-09T15:08:46.739Z,18.10
2022-10-09T15:11:13.424Z,18.00
2022-10-09T15:13:40.255Z,18.00
2022-10-09T15:16:14.003Z,18.00
2022-10-09T15:18:40.796Z,18.00
2022-10-09T15:21:16.190Z,17.90
2022-10-09T15:23:43.350Z,17.90
2022-10-09T15:26:10.616Z,17.90
2022-10-09T15:28:38.770Z,17.90
2022-10-09T15:31:07.233Z,17.80
2022-10-09T15:33:34.479Z,17.70
2022-10-09T15:36:04.041Z,17.70
2022-10-09T15:38:30.922Z,17.60
2022-10-09T15:40:58.071Z,17.60
2022-10-09T15:43:27.987Z,17.60
2022-10-09T15:46:02.914Z,17.50
2022-10-09T15:48:30.077Z,17.50
2022-10-09T15:50:57.162Z,17.40
2022-10-09T15:53:24.683Z,17.40
2022-10-09T15:55:53.302Z,17.30
2022-10-09T15:58:20.689Z,17.20
2022-10-09T16:00:49.829Z,17.20
2022-10-09T16:03:17.849Z,17.10
2022-10-09T16:05:48.430Z,17.10
2022-10-09T16:08:18.896Z,17.10
2022-10-09T16:10:49.286Z,17.00
2022-10-09T16:13:16.753Z,17.00
2022-10-09T16:15:44.920Z,16.90
2022-10-09T16:18:11.996Z,16.90
2022-10-09T16:20:40.250Z,16.80
2022-10-09T16:23:08.451Z,16.80
2022-10-09T16:25:36.407Z,16.80
2022-10-09T16:28:04.105Z,16.70
2022-10-09T16:30:32.357Z,16.60
2022-10-09T16:32:59.633Z,16.60
2022-10-09T16:35:26.350Z,16.50
2022-10-09T16:37:53.162Z,16.40
2022-10-09T16:40:21.105Z,16.40
2022-10-09T16:42:52.937Z,16.40
2022-10-09T16:45:19.744Z,16.40
2022-10-09T16:47:48.469Z,16.30
2022-10-09T16:50:15.721Z,16.20
2022-10-09T16:52:42.440Z,16.20
2022-10-09T16:55:09.519Z,16.10
2022-10-09T16:57:36.230Z,16.10
2022-10-09T17:00:04.119Z,16.00
2022-10-09T17:02:30.992Z,16.00
2022-10-09T17:04:58.046Z,16.00
2022-10-09T17:07:25.254Z,15.90
2022-10-09T17:09:53.220Z,15.90
2022-10-09T17:12:19.955Z,15.80
2022-10-09T17:14:47.610Z,15.80
2022-10-09T17:17:14.430Z,15.70
2022-10-09T17:19:41.833Z,15.70
2022-10-09T17:22:08.608Z,15.60
2022-10-09T17:24:35.351Z,15.60
2022-10-09T17:27:02.122Z,15.50
2022-10-09T17:29:28.845Z,15.50
2022-10-09T17:31:55.580Z,15.50
2022-10-09T17:34:22.330Z,15.40
2022-10-09T17:36:49.558Z,15.40
2022-10-09T17:39:17.627Z,15.30
2022-10-09T17:41:46.798Z,15.30
2022-10-09T17:44:15.521Z,15.30
2022-10-09T17:46:42.974Z,15.20
2022-10-09T17:49:10.506Z,15.20
2022-10-09T17:51:42.528Z,15.20
2022-10-09T17:54:14.081Z,15.10
2022-10-09T17:56:41.696Z,15.10
2022-10-09T17:59:09.561Z,15.00
2022-10-09T18:01:37.193Z,15.00
2022-10-09T18:04:05.930Z,15.00
2022-10-09T18:06:34.781Z,15.00
2022-10-09T18:09:02.939Z,14.90
2022-10-09T18:11:36.273Z,14.90
2022-10-09T18:14:03.993Z,14.80
2022-10-09T18:16:36.282Z,14.80
2022-10-09T18:19:06.647Z,14.80
2022-10-09T18:21:34.475Z,14.70
2022-10-09T18:24:01.872Z,14.70
2022-10-09T18:26:28.556Z,14.60
2022-10-09T18:28:55.297Z,14.60
2022-10-09T18:31:23.873Z,14.50
2022-10-09T18:33:52.161Z,14.50
2022-10-09T18:36:24.658Z,14.50
2022-10-09T18:38:58.490Z,14.40
2022-10-09T18:41:25.358Z,14.40
2022-10-09T18:43:52.705Z,14.30
2022-10-09T18:46:22.753Z,14.30
2022-10-09T18:48:50.066Z,14.30
2022-10-09T18:51:20.242Z,14.20
2022-10-09T18:53:51.718Z,14.20
2022-10-09T18:56:20.810Z,14.10
2022-10-09T18:58:49.525Z,14.10
2022-10-09T19:01:16.571Z,14.10
2022-10-09T19:03:46.080Z,14.00
2022-10-09T19:06:16.571Z,14.00
2022-10-09T19:08:43.813Z,13.90
2022-10-09T19:11:14.185Z,13.80
2022-10-09T19:13:42.277Z,13.80
2022-10-09T19:16:09.878Z,13.70
2022-10-09T19:18:37.709Z,13.70
2022-10-09T19:21:04.649Z,13.70
2022-10-09T19:23:31.400Z,13.70
2022-10-09T19:25:59.251Z,13.60
2022-10-09T19:28:30.513Z,13.60
2022-10-09T19:30:57.374Z,13.50
2022-10-09T19:33:24.523Z,13.50
2022-10-09T19:35:54.026Z,13.40
2022-10-09T19:38:21.915Z,13.40
2022-10-09T19:40:49.803Z,13.40
2022-10-09T19:43:17.974Z,13.40
2022-10-09T19:45:48.713Z,13.30
2022-10-09T19:48:17.115Z,13.30
2022-10-09T19:50:45.274Z,13.20
2022-10-09T19:53:13.176Z,13.10
2022-10-09T19:55:39.948Z,13.10
2022-10-09T19:58:07.070Z,13.10
2022-10-09T20:00:34.150Z,13.20
2022-10-09T20:03:00.825Z,13.10
2022-10-09T20:05:27.579Z,13.00
2022-10-09T20:07:54.726Z,13.00
2022-10-09T20:10:21.440Z,13.00
2022-10-09T20:12:48.448Z,13.00
2022-10-09T20:15:15.720Z,13.00
2022-10-09T20:17:55.157Z,13.00
2022-10-09T20:20:22.281Z,12.90
2022-10-09T20:22:49.383Z,12.90
2022-10-09T20:25:16.938Z,12.80
2022-10-09T20:27:43.610Z,12.80
2022-10-09T20:30:10.896Z,12.80
2022-10-09T20:32:37.812Z,12.70
2022-10-09T20:35:05.541Z,12.70
2022-10-09T20:37:33.375Z,12.70
2022-10-09T20:40:00.042Z,12.70
2022-10-09T20:42:26.822Z,12.60
2022-10-09T20:44:53.798Z,12.60
2022-10-09T20:47:20.470Z,12.50
2022-10-09T20:49:48.499Z,12.50
2022-10-09T20:52:15.250Z,12.50
2022-10-09T20:54:42.010Z,12.50
2022-10-09T20:57:08.678Z,12.40
2022-10-09T20:59:35.674Z,12.40
2022-10-09T21:02:02.415Z,12.40
2022-10-09T21:04:29.297Z,12.30
2022-10-09T21:06:56.282Z,12.30
2022-10-09T21:09:22.971Z,12.30
2022-10-09T21:11:50.632Z,12.30
2022-10-09T21:14:17.346Z,12.30
2022-10-09T21:16:44.003Z,12.20
2022-10-09T21:19:11.451Z,12.20
2022-10-09T21:21:38.190Z,12.20
2022-10-09T21:24:05.195Z,12.20
2022-10-09T21:26:35.566Z,12.20
2022-10-09T21:29:06.424Z,12.20
2022-10-09T21:31:33.882Z,12.20
2022-10-09T21:34:01.682Z,12.10
2022-10-09T21:39:32.006Z,12.10
2022-10-09T21:41:59.275Z,12.10
2022-10-09T21:44:25.954Z,12.10
2022-10-09T21:46:52.603Z,12.00
2022-10-09T21:49:22.071Z,12.00
2022-10-09T21:51:49.347Z,12.00
2022-10-09T21:54:16.425Z,12.00
2022-10-09T21:56:43.160Z,11.90
2022-10-09T21:59:09.932Z,11.90
2022-10-09T22:01:36.837Z,11.90
2022-10-09T22:04:03.898Z,11.80
2022-10-09T22:06:30.597Z,11.80
2022-10-09T22:08:59.070Z,11.80
2022-10-09T22:11:26.123Z,11.80
2022-10-09T22:13:52.934Z,11.70
2022-10-09T22:16:19.630Z,11.70
2022-10-09T22:18:46.375Z,11.70
2022-10-09T22:21:14.870Z,11.70
2022-10-09T22:23:41.905Z,11.60
2022-10-09T22:26:12.818Z,11.60
2022-10-09T22:28:39.881Z,11.60
2022-10-09T22:31:25.567Z,11.60
2022-10-09T22:33:57.651Z,11.60
2022-10-09T22:36:26.238Z,11.50
2022-10-09T22:38:54.968Z,11.50
2022-10-09T22:41:22.963Z,11.50
2022-10-09T22:43:52.509Z,11.40
2022-10-09T22:46:22.741Z,11.40
2022-10-09T22:48:50.818Z,11.40
2022-10-09T22:51:19.468Z,11.30
2022-10-09T22:53:46.892Z,11.30
2022-10-09T22:56:19.619Z,11.30
2022-10-09T22:58:47.506Z,11.30
2022-10-09T23:01:21.830Z,11.20
2022-10-09T23:03:48.545Z,11.20
2022-10-09T23:06:19.082Z,11.20
2022-10-09T23:08:47.669Z,11.20
2022-10-09T23:11:16.065Z,11.20
2022-10-09T23:13:43.005Z,11.20
2022-10-09T23:16:12.210Z,11.20
2022-10-09T23:18:40.096Z,11.20
2022-10-09T23:21:09.785Z,11.20
2022-10-09T23:23:36.650Z,11.20
2022-10-09T23:26:05.443Z,11.20
2022-10-09T23:28:32.396Z,11.10
2022-10-09T23:31:04.418Z,11.10
2022-10-09T23:33:31.113Z,11.10
2022-10-09T23:35:57.906Z,11.10
2022-10-09T23:38:24.834Z,11.10
2022-10-09T23:41:06.347Z,11.10
2022-10-09T23:43:35.282Z,11.10
2022-10-09T23:46:04.479Z,11.10
2022-10-09T23:48:31.784Z,11.10
2022-10-09T23:50:58.585Z,11.00
2022-10-09T23:53:26.595Z,11.00
2022-10-09T23:55:54.325Z,11.00
2022-10-09T23:58:22.135Z,11.00
